»·PEaware :: N117TE KPSP-KCMA

N117TE :: KPSP-KCMA

FLIGHT INFORMATION

Flight Status: Arrived
Operator: Privately registered:
United States
More flights under this callsign
Pilot: Tyler T. (31972)
Aircraft: BEECH AIRCRAFT BONANZA
(BE36)
More flights by this aircraft type
Origin: KPSP Palm Springs Intl
United States
Destination: KCMA Camarillo
United States
More flights between these airports :: More routes between these airports
Route:
File this flight plan on PilotEdge
Remarks: FF
Altitude:
(Current/Filed)
6,500ft
Speed:
(Current/Filed)
0kts
Departed: 03-Jan-21 08:19 PM
Arrived: 03-Jan-21 09:15 PM
Distance/Time
Traveled:
131nm/0:56
Distance/Time
To Go:
Arrived

Flight Plot

Page will automatically refresh every two minutes.

Flight plan parsing failed; only flown route is shown


Map Options




Map Legend


Flown Route
Filed Route
Departure Airport
Arrival Airport
Navaid (VOR, NDB)
Fix

Horizontal Profiles

Position Reports

Time Latitude Longitude Heading Altitude Ground
Speed
03-Jan-21 20:06 33.821375 -116.506856 316 414ft 0kts
03-Jan-21 20:07 33.821375 -116.506856 316 414ft 0kts
03-Jan-21 20:08 33.821375 -116.506856 316 414ft 0kts
03-Jan-21 20:09 33.821376 -116.506856 316 414ft 0kts
03-Jan-21 20:10 33.821375 -116.506856 316 414ft 0kts
03-Jan-21 20:11 33.822586 -116.505000 50 414ft 22kts
03-Jan-21 20:12 33.821653 -116.502534 141 411ft 15kts
03-Jan-21 20:13 33.818486 -116.499175 86 401ft 0kts
03-Jan-21 20:14 33.818486 -116.499175 86 401ft 0kts
03-Jan-21 20:15 33.818486 -116.499175 86 401ft 0kts
03-Jan-21 20:16 33.818486 -116.499176 86 401ft 0kts
03-Jan-21 20:17 33.818493 -116.499107 82 401ft 3kts
03-Jan-21 20:18 33.828711 -116.506025 329 522ft 105kts
03-Jan-21 20:20 33.854635 -116.526059 314 2096ft 109kts
03-Jan-21 20:21 33.875884 -116.553087 304 3539ft 113kts
03-Jan-21 20:22 33.893100 -116.584294 304 4913ft 112kts
03-Jan-21 20:23 33.903822 -116.620078 283 6087ft 119kts
03-Jan-21 20:24 33.911982 -116.663288 278 6470ft 147kts
03-Jan-21 20:25 33.917200 -116.715822 277 6407ft 166kts
03-Jan-21 20:26 33.920383 -116.769462 273 6490ft 158kts
03-Jan-21 20:27 33.922837 -116.822920 273 6475ft 160kts
03-Jan-21 20:28 33.925446 -116.876430 274 6503ft 160kts
03-Jan-21 20:29 33.928565 -116.930196 273 6478ft 161kts
03-Jan-21 20:30 33.933216 -116.984233 277 6475ft 159kts
03-Jan-21 20:31 33.937585 -117.037600 277 6485ft 161kts
03-Jan-21 20:32 33.946326 -117.090003 285 6541ft 158kts
03-Jan-21 20:33 33.957341 -117.142010 284 6518ft 161kts
03-Jan-21 20:33 33.966456 -117.185672 282 6498ft 162kts
03-Jan-21 20:35 33.976866 -117.247798 281 6472ft 161kts
03-Jan-21 20:35 33.983019 -117.292291 278 6483ft 160kts
03-Jan-21 20:37 33.991078 -117.354796 282 6464ft 162kts
03-Jan-21 20:37 33.999804 -117.398646 284 6506ft 160kts
03-Jan-21 20:38 34.011660 -117.450611 286 6494ft 161kts
03-Jan-21 20:40 34.025137 -117.511576 284 6489ft 162kts
03-Jan-21 20:40 34.033862 -117.555427 281 6499ft 162kts
03-Jan-21 20:41 34.042792 -117.608773 282 6509ft 162kts
03-Jan-21 20:42 34.055334 -117.660898 287 6519ft 162kts
03-Jan-21 20:43 34.070465 -117.712054 286 6521ft 162kts
03-Jan-21 20:44 34.082351 -117.764286 285 6538ft 161kts
03-Jan-21 20:45 34.091925 -117.817950 279 6536ft 161kts
03-Jan-21 20:46 34.097952 -117.867998 278 6526ft 162kts
03-Jan-21 20:47 34.106891 -117.919426 287 6562ft 160kts
03-Jan-21 20:48 34.118536 -117.967078 283 6535ft 161kts
03-Jan-21 20:49 34.125681 -118.011342 281 6500ft 162kts
03-Jan-21 20:50 34.132786 -118.056453 279 6477ft 161kts
03-Jan-21 20:51 34.136964 -118.102713 274 6448ft 162kts
03-Jan-21 20:52 34.143424 -118.155258 288 6432ft 160kts
03-Jan-21 20:53 34.158491 -118.206148 288 6406ft 160kts
03-Jan-21 20:54 34.173505 -118.256888 292 6396ft 159kts
03-Jan-21 20:55 34.188326 -118.307131 286 6449ft 158kts
03-Jan-21 20:56 34.198632 -118.358928 282 6493ft 158kts
03-Jan-21 20:57 34.206599 -118.410577 281 6532ft 158kts
03-Jan-21 20:58 34.213900 -118.463123 280 6552ft 158kts
03-Jan-21 20:59 34.219059 -118.516179 270 6536ft 160kts
03-Jan-21 21:00 34.217137 -118.567161 270 6383ft 147kts
03-Jan-21 21:01 34.215547 -118.616159 269 6172ft 147kts
03-Jan-21 21:02 34.213976 -118.665073 268 5909ft 145kts
03-Jan-21 21:03 34.214230 -118.714643 272 5258ft 147kts
03-Jan-21 21:04 34.213959 -118.765351 270 4435ft 141kts
03-Jan-21 21:05 34.213809 -118.810869 268 3687ft 130kts
03-Jan-21 21:06 34.213336 -118.849821 272 2972ft 109kts
03-Jan-21 21:07 34.214424 -118.886102 271 2510ft 105kts
03-Jan-21 21:08 34.213453 -118.921891 269 2055ft 107kts
03-Jan-21 21:09 34.213639 -118.957285 273 1676ft 104kts
03-Jan-21 21:10 34.213067 -118.992408 270 1203ft 104kts
03-Jan-21 21:11 34.212707 -119.025404 273 687ft 97kts
03-Jan-21 21:12 34.213412 -119.056558 270 380ft 89kts
03-Jan-21 21:13 34.213667 -119.084834 272 99ft 75kts
03-Jan-21 21:14 34.212899 -119.095618 200 73ft 7kts
03-Jan-21 21:15 34.211737 -119.095538 153 71ft 17kts
03-Jan-21 21:16 34.210710 -119.094313 177 71ft 0kts

Navigation Log

Ident Type
Flight plan parsing failed, navigation log unavailable